Time;durP1;ratioP1;P1;durP2;ratioP2;P2;SDS_P1;SDS_P2;PMS_P1;PMS_P2;Temp;Humidity;BMP_temperature;BMP_pressure;BME280_temperature;BME280_humidity;BME280_pressure;Samples;Min_cycle;Max_cycle;Signal;HPM_P1;HPM_P2
2023/09/03 00:00:28;;;;;;;4.35;2.30;;;;;;;;;;5054809;28;20021;-59
2023/09/03 00:02:54;;;;;;;4.93;2.90;;;;;;;;;;5054120;28;20406;-60
2023/09/03 00:05:20;;;;;;;4.22;2.70;;;;;;;;;;5054425;28;20108;-60
2023/09/03 00:07:46;;;;;;;3.38;1.80;;;;;;;;;;5054096;28;20037;-60
2023/09/03 00:10:12;;;;;;;3.05;2.33;;;;;;;;;;5054389;28;20413;-60
2023/09/03 00:12:38;;;;;;;5.15;1.98;;;;;;;;;;5053664;28;20017;-60
2023/09/03 00:15:04;;;;;;;3.28;2.17;;;;;;;;;;5053665;28;20027;-60
2023/09/03 00:17:30;;;;;;;3.70;2.28;;;;;;;;;;5054502;28;20036;-59
2023/09/03 00:19:56;;;;;;;4.07;2.95;;;;;;;;;;5054272;28;20029;-60
2023/09/03 00:22:22;;;;;;;3.72;3.00;;;;;;;;;;5053922;28;20118;-60
2023/09/03 00:24:49;;;;;;;3.08;2.13;;;;;;;;;;5053623;28;20370;-59
2023/09/03 00:27:15;;;;;;;4.38;2.65;;;;;;;;;;5054020;28;20029;-60
2023/09/03 00:29:41;;;;;;;3.90;2.42;;;;;;;;;;5054605;28;20451;-59
2023/09/03 00:32:07;;;;;;;6.25;2.75;;;;;;;;;;5053702;28;20339;-59
2023/09/03 00:34:33;;;;;;;4.28;2.60;;;;;;;;;;5053706;28;20104;-59
2023/09/03 00:36:59;;;;;;;3.38;2.70;;;;;;;;;;5053419;28;20536;-60
2023/09/03 00:39:25;;;;;;;3.40;2.67;;;;;;;;;;5053943;28;20030;-59
2023/09/03 00:41:52;;;;;;;3.50;2.53;;;;;;;;;;5054282;28;20049;-59
2023/09/03 00:44:18;;;;;;;5.50;3.00;;;;;;;;;;5053753;28;20374;-60
2023/09/03 00:46:44;;;;;;;4.78;3.30;;;;;;;;;;5053486;28;20100;-59
2023/09/03 00:49:12;;;;;;;3.05;2.47;;;;;;;;;;5054130;28;20112;-59
2023/09/03 00:51:38;;;;;;;3.78;2.65;;;;;;;;;;5053464;28;20113;-59
2023/09/03 00:54:04;;;;;;;4.15;2.83;;;;;;;;;;5053789;28;20029;-59
2023/09/03 00:56:31;;;;;;;4.32;2.97;;;;;;;;;;5053710;28;20457;-60
2023/09/03 00:58:57;;;;;;;3.70;2.47;;;;;;;;;;5053106;28;20017;-59
2023/09/03 01:01:23;;;;;;;3.17;2.17;;;;;;;;;;5053080;28;20100;-60
2023/09/03 01:03:49;;;;;;;6.68;2.97;;;;;;;;;;5053838;28;20017;-60
2023/09/03 01:06:15;;;;;;;3.70;2.65;;;;;;;;;;5053858;28;20025;-60
2023/09/03 01:08:41;;;;;;;5.82;2.85;;;;;;;;;;5056496;28;20413;-59
2023/09/03 01:11:14;;;;;;;4.47;2.85;;;;;;;;;;5057966;28;20040;-59
2023/09/03 01:13:47;;;;;;;4.07;3.20;;;;;;;;;;5057896;28;20020;-59
2023/09/03 01:16:18;;;;;;;3.83;2.85;;;;;;;;;;5057892;28;20044;-59
2023/09/03 01:18:44;;;;;;;3.85;2.53;;;;;;;;;;5057891;28;20017;-60
2023/09/03 01:21:27;;;;;;;4.82;2.85;;;;;;;;;;5057830;28;20037;-60
2023/09/03 01:24:10;;;;;;;5.60;3.10;;;;;;;;;;5057783;28;20029;-59
2023/09/03 01:26:36;;;;;;;4.80;3.35;;;;;;;;;;5057050;28;20493;-59
2023/09/03 01:29:02;;;;;;;4.75;3.00;;;;;;;;;;5057667;28;20024;-59
2023/09/03 01:31:28;;;;;;;4.72;3.50;;;;;;;;;;5057388;28;20029;-60
2023/09/03 01:34:02;;;;;;;3.35;2.85;;;;;;;;;;5057057;28;20029;-60
2023/09/03 01:36:29;;;;;;;7.28;3.05;;;;;;;;;;5057380;28;20037;-59
2023/09/03 01:38:55;;;;;;;3.67;3.10;;;;;;;;;;5057269;28;20073;-60
2023/09/03 01:41:21;;;;;;;8.38;2.72;;;;;;;;;;5056817;28;20529;-60
2023/09/03 01:43:47;;;;;;;4.05;2.83;;;;;;;;;;5056818;28;20025;-60
2023/09/03 01:46:42;;;;;;;3.15;2.50;;;;;;;;;;5057337;28;20021;-59
2023/09/03 01:49:10;;;;;;;4.55;2.95;;;;;;;;;;5052399;28;20375;-59
2023/09/03 01:51:58;;;;;;;6.43;2.83;;;;;;;;;;5057173;28;20021;-60
2023/09/03 01:54:40;;;;;;;3.47;2.53;;;;;;;;;;5056708;28;20021;-59
2023/09/03 01:57:17;;;;;;;3.65;2.55;;;;;;;;;;5056527;28;20072;-59
2023/09/03 01:59:43;;;;;;;3.58;2.40;;;;;;;;;;5056677;28;20025;-59
2023/09/03 02:02:10;;;;;;;5.43;2.22;;;;;;;;;;5056532;28;20028;-59
2023/09/03 02:04:36;;;;;;;3.88;3.03;;;;;;;;;;5056473;28;20021;-60
2023/09/03 02:07:02;;;;;;;4.30;2.90;;;;;;;;;;5056318;28;20120;-59
2023/09/03 02:09:28;;;;;;;3.35;2.45;;;;;;;;;;5057184;28;20032;-59
2023/09/03 02:11:54;;;;;;;5.43;2.47;;;;;;;;;;5057103;28;20100;-59
2023/09/03 02:14:20;;;;;;;4.50;2.95;;;;;;;;;;5056774;28;20493;-59
2023/09/03 02:16:46;;;;;;;2.80;2.28;;;;;;;;;;5056281;28;20100;-59
2023/09/03 02:19:12;;;;;;;3.53;2.72;;;;;;;;;;5055553;28;20028;-59
2023/09/03 02:21:38;;;;;;;3.47;2.45;;;;;;;;;;5056109;28;20021;-59
2023/09/03 02:24:04;;;;;;;3.60;2.80;;;;;;;;;;5056409;28;20021;-59
2023/09/03 02:26:30;;;;;;;3.83;2.78;;;;;;;;;;5055780;28;20013;-59
2023/09/03 02:28:56;;;;;;;3.22;2.17;;;;;;;;;;5055953;28;20029;-60
2023/09/03 02:31:22;;;;;;;2.95;2.38;;;;;;;;;;5055558;28;20057;-59
2023/09/03 02:33:47;;;;;;;5.10;2.10;;;;;;;;;;5055866;28;20021;-59
2023/09/03 02:36:13;;;;;;;3.75;2.85;;;;;;;;;;5056217;28;20017;-60
2023/09/03 02:38:40;;;;;;;3.25;2.35;;;;;;;;;;5056060;28;20215;-59
2023/09/03 02:41:06;;;;;;;3.92;2.78;;;;;;;;;;5056057;28;20021;-59
2023/09/03 02:43:32;;;;;;;3.97;2.40;;;;;;;;;;5055684;28;20087;-59
2023/09/03 02:45:58;;;;;;;2.72;2.20;;;;;;;;;;5056016;28;20393;-59
2023/09/03 02:48:24;;;;;;;3.75;2.67;;;;;;;;;;5056109;28;20455;-59
2023/09/03 02:50:49;;;;;;;3.13;2.60;;;;;;;;;;5055885;28;20029;-59
2023/09/03 02:53:15;;;;;;;4.00;2.50;;;;;;;;;;5055767;28;20021;-61
2023/09/03 02:55:41;;;;;;;4.22;2.45;;;;;;;;;;5055181;28;20028;-60
2023/09/03 02:58:07;;;;;;;2.72;2.13;;;;;;;;;;5055445;28;20030;-60
2023/09/03 03:00:34;;;;;;;2.75;1.95;;;;;;;;;;5055978;28;20359;-60
2023/09/03 03:03:01;;;;;;;5.47;2.85;;;;;;;;;;5055443;28;20021;-60
2023/09/03 03:05:26;;;;;;;2.83;1.98;;;;;;;;;;5055364;28;20111;-60
2023/09/03 03:07:55;;;;;;;3.17;2.30;;;;;;;;;;5055693;28;20128;-60
2023/09/03 03:10:21;;;;;;;2.83;1.80;;;;;;;;;;5055821;28;20375;-60
2023/09/03 03:12:47;;;;;;;4.43;2.42;;;;;;;;;;5055690;28;20021;-60
2023/09/03 03:15:12;;;;;;;5.28;2.53;;;;;;;;;;5055123;28;20526;-60
2023/09/03 03:17:38;;;;;;;5.18;2.72;;;;;;;;;;5055130;28;20025;-60
2023/09/03 03:20:05;;;;;;;5.15;2.65;;;;;;;;;;5055885;28;20043;-60
2023/09/03 03:22:31;;;;;;;3.67;2.78;;;;;;;;;;5054945;28;20029;-60
2023/09/03 03:24:57;;;;;;;2.70;1.95;;;;;;;;;;5055457;28;20017;-60
2023/09/03 03:27:23;;;;;;;3.13;2.10;;;;;;;;;;5055123;28;20037;-60
2023/09/03 03:29:52;;;;;;;3.03;2.35;;;;;;;;;;5055415;28;20032;-60
2023/09/03 03:32:19;;;;;;;3.90;2.45;;;;;;;;;;5054254;28;20025;-60
2023/09/03 03:34:45;;;;;;;4.18;2.90;;;;;;;;;;5055248;28;20029;-60
2023/09/03 03:37:11;;;;;;;3.05;2.38;;;;;;;;;;5054671;28;20064;-60
2023/09/03 03:39:37;;;;;;;3.85;2.55;;;;;;;;;;5054918;28;20104;-60
2023/09/03 03:42:03;;;;;;;4.35;3.03;;;;;;;;;;5054571;28;20032;-60
2023/09/03 03:44:30;;;;;;;4.85;2.80;;;;;;;;;;5054494;28;20033;-60
2023/09/03 03:46:56;;;;;;;3.92;2.78;;;;;;;;;;5054899;28;20029;-60
2023/09/03 03:49:22;;;;;;;4.32;3.30;;;;;;;;;;5054738;28;20033;-60
2023/09/03 03:51:48;;;;;;;3.28;2.50;;;;;;;;;;5054434;28;20068;-60
2023/09/03 03:54:14;;;;;;;4.03;2.97;;;;;;;;;;5055116;28;20017;-60
2023/09/03 03:56:40;;;;;;;3.63;2.72;;;;;;;;;;5054844;28;20021;-60
2023/09/03 03:59:06;;;;;;;3.13;2.20;;;;;;;;;;5054587;28;20031;-60
2023/09/03 04:01:32;;;;;;;3.38;2.47;;;;;;;;;;5055048;28;20024;-60
2023/09/03 04:03:58;;;;;;;3.83;2.72;;;;;;;;;;5053954;28;20036;-60
2023/09/03 04:06:24;;;;;;;3.22;2.78;;;;;;;;;;5054645;28;20116;-60
2023/09/03 04:08:50;;;;;;;4.18;2.50;;;;;;;;;;5054130;28;20035;-60
2023/09/03 04:11:19;;;;;;;4.32;3.25;;;;;;;;;;5054714;28;20032;-60
2023/09/03 04:13:45;;;;;;;6.07;3.45;;;;;;;;;;5053993;28;20025;-60
2023/09/03 04:16:13;;;;;;;3.85;2.60;;;;;;;;;;5054065;28;20079;-60
2023/09/03 04:18:40;;;;;;;3.25;2.55;;;;;;;;;;5053694;28;20117;-60
2023/09/03 04:21:06;;;;;;;3.53;2.15;;;;;;;;;;5054001;28;20355;-60
2023/09/03 04:23:32;;;;;;;3.78;3.38;;;;;;;;;;5053934;28;20025;-60
2023/09/03 04:25:58;;;;;;;6.18;2.95;;;;;;;;;;5053834;28;20112;-60
2023/09/03 04:28:25;;;;;;;4.03;2.42;;;;;;;;;;5053828;28;20031;-60
2023/09/03 04:30:54;;;;;;;4.25;2.40;;;;;;;;;;5054365;28;20021;-60
2023/09/03 04:33:20;;;;;;;3.95;2.67;;;;;;;;;;5053719;28;20017;-60
2023/09/03 04:35:46;;;;;;;3.00;2.28;;;;;;;;;;5053710;28;20036;-60
2023/09/03 04:38:12;;;;;;;4.18;3.05;;;;;;;;;;5054403;28;20417;-60
2023/09/03 04:40:38;;;;;;;4.93;2.88;;;;;;;;;;5054458;28;20071;-60
2023/09/03 04:43:05;;;;;;;5.32;2.95;;;;;;;;;;5052898;28;20109;-60
2023/09/03 04:45:31;;;;;;;2.72;2.22;;;;;;;;;;5053604;28;20024;-60
2023/09/03 04:47:58;;;;;;;3.42;2.50;;;;;;;;;;5053479;28;20516;-60
2023/09/03 04:50:25;;;;;;;4.32;2.30;;;;;;;;;;5054098;28;20021;-60
2023/09/03 04:52:51;;;;;;;2.97;2.22;;;;;;;;;;5053518;28;20025;-60
2023/09/03 04:55:17;;;;;;;3.70;2.88;;;;;;;;;;5053482;28;20021;-60
2023/09/03 04:57:43;;;;;;;3.90;2.53;;;;;;;;;;5053469;28;20108;-60
2023/09/03 05:00:10;;;;;;;3.63;2.47;;;;;;;;;;5053729;28;20108;-60
2023/09/03 05:02:36;;;;;;;3.50;2.72;;;;;;;;;;5053914;28;20142;-60
2023/09/03 05:05:02;;;;;;;4.90;2.67;;;;;;;;;;5053763;28;20054;-60
2023/09/03 05:07:28;;;;;;;3.42;2.58;;;;;;;;;;5053013;28;20029;-60
2023/09/03 05:09:55;;;;;;;3.47;1.95;;;;;;;;;;5053973;28;20475;-60
2023/09/03 05:12:21;;;;;;;5.03;3.15;;;;;;;;;;5053413;28;20370;-60
2023/09/03 05:14:47;;;;;;;2.72;1.90;;;;;;;;;;5053384;28;20025;-60
2023/09/03 05:17:13;;;;;;;4.32;2.80;;;;;;;;;;5053595;28;20025;-60
2023/09/03 05:19:40;;;;;;;3.25;2.28;;;;;;;;;;5053559;28;20025;-60
2023/09/03 05:22:09;;;;;;;3.17;2.40;;;;;;;;;;5053987;28;20021;-60
2023/09/03 05:24:35;;;;;;;4.63;2.45;;;;;;;;;;5053291;28;20029;-60
2023/09/03 05:27:01;;;;;;;3.88;2.30;;;;;;;;;;5053624;28;20128;-60
2023/09/03 05:29:27;;;;;;;3.95;2.47;;;;;;;;;;5053648;28;20029;-60
2023/09/03 05:31:53;;;;;;;2.72;2.17;;;;;;;;;;5052898;28;20498;-61
2023/09/03 05:34:19;;;;;;;3.58;2.55;;;;;;;;;;5053693;28;20340;-60
2023/09/03 05:36:45;;;;;;;4.22;2.60;;;;;;;;;;5052822;28;20135;-60
2023/09/03 05:39:11;;;;;;;4.25;2.20;;;;;;;;;;5053629;28;20060;-60
2023/09/03 05:41:37;;;;;;;3.30;2.15;;;;;;;;;;5052745;28;20025;-60
2023/09/03 05:44:06;;;;;;;3.03;2.55;;;;;;;;;;5053003;28;20382;-60
2023/09/03 05:46:32;;;;;;;3.20;2.33;;;;;;;;;;5053038;28;20151;-61
2023/09/03 05:48:58;;;;;;;4.38;2.90;;;;;;;;;;5053528;28;20037;-61
2023/09/03 05:51:25;;;;;;;3.70;2.72;;;;;;;;;;5053042;28;20382;-61
2023/09/03 05:53:51;;;;;;;4.75;2.90;;;;;;;;;;5054156;28;20025;-61
2023/09/03 05:56:17;;;;;;;4.05;2.55;;;;;;;;;;5057258;28;20025;-61
2023/09/03 05:58:43;;;;;;;3.38;2.50;;;;;;;;;;5057214;28;20106;-62
2023/09/03 06:01:10;;;;;;;5.63;3.65;;;;;;;;;;5057558;28;20434;-60
2023/09/03 06:03:36;;;;;;;4.47;3.42;;;;;;;;;;5056616;28;20017;-61
2023/09/03 06:06:03;;;;;;;4.50;4.05;;;;;;;;;;5056533;28;20032;-60
2023/09/03 06:08:29;;;;;;;6.07;5.05;;;;;;;;;;5056959;28;20025;-60
2023/09/03 06:10:56;;;;;;;8.18;4.55;;;;;;;;;;5056184;28;20033;-60
2023/09/03 06:13:23;;;;;;;4.43;3.65;;;;;;;;;;5056352;28;20033;-61
2023/09/03 06:15:49;;;;;;;4.20;3.65;;;;;;;;;;5056349;28;20064;-60
2023/09/03 06:18:15;;;;;;;5.85;4.38;;;;;;;;;;5056283;28;20071;-61
2023/09/03 06:20:41;;;;;;;5.10;4.22;;;;;;;;;;5056835;28;20336;-60
2023/09/03 06:23:08;;;;;;;4.57;3.22;;;;;;;;;;5055498;28;20358;-60
2023/09/03 06:25:34;;;;;;;4.28;3.70;;;;;;;;;;5057256;28;20219;-60
2023/09/03 06:28:00;;;;;;;5.35;3.75;;;;;;;;;;5055805;28;20025;-61
2023/09/03 06:30:26;;;;;;;5.97;4.05;;;;;;;;;;5056446;28;20040;-61
2023/09/03 06:32:52;;;;;;;5.18;4.35;;;;;;;;;;5056018;28;20017;-60
2023/09/03 06:35:18;;;;;;;5.15;4.45;;;;;;;;;;5055611;28;20121;-60
2023/09/03 06:37:44;;;;;;;4.25;3.53;;;;;;;;;;5056551;28;20052;-60
2023/09/03 06:40:14;;;;;;;4.55;3.90;;;;;;;;;;5056462;28;20028;-60
2023/09/03 06:42:40;;;;;;;3.90;3.50;;;;;;;;;;5055878;28;20029;-60
2023/09/03 06:45:06;;;;;;;4.10;3.17;;;;;;;;;;5055402;28;20132;-60
2023/09/03 06:47:32;;;;;;;8.65;3.63;;;;;;;;;;5055936;28;20033;-60
2023/09/03 06:49:58;;;;;;;4.43;4.00;;;;;;;;;;5056246;28;20021;-60
2023/09/03 06:52:24;;;;;;;3.60;3.20;;;;;;;;;;5055307;28;20205;-60
2023/09/03 06:54:51;;;;;;;4.85;3.63;;;;;;;;;;5055535;28;20029;-60
2023/09/03 06:57:18;;;;;;;5.32;3.97;;;;;;;;;;5055575;28;20044;-60
2023/09/03 06:59:44;;;;;;;5.35;3.75;;;;;;;;;;5056388;28;20025;-60
2023/09/03 07:02:10;;;;;;;4.10;3.42;;;;;;;;;;5055709;28;20021;-61
2023/09/03 07:04:36;;;;;;;6.45;3.28;;;;;;;;;;5055118;28;20029;-60
2023/09/03 07:07:05;;;;;;;4.72;3.63;;;;;;;;;;5054745;28;20469;-61
2023/09/03 07:09:32;;;;;;;4.28;3.22;;;;;;;;;;5055927;28;20067;-60
2023/09/03 07:11:59;;;;;;;5.70;3.58;;;;;;;;;;5055341;28;20021;-60
2023/09/03 07:14:25;;;;;;;3.83;2.70;;;;;;;;;;5055772;28;20619;-60
2023/09/03 07:16:51;;;;;;;4.35;3.17;;;;;;;;;;5055188;28;20082;-60
2023/09/03 07:19:17;;;;;;;4.38;3.58;;;;;;;;;;5055119;28;20029;-60
2023/09/03 07:21:43;;;;;;;5.15;3.80;;;;;;;;;;5055152;28;20021;-60
2023/09/03 07:24:09;;;;;;;5.97;4.35;;;;;;;;;;5055034;28;20025;-61
2023/09/03 07:26:35;;;;;;;5.35;4.25;;;;;;;;;;5055047;28;20055;-60
2023/09/03 07:29:02;;;;;;;5.28;4.28;;;;;;;;;;5055059;28;20029;-60
2023/09/03 07:31:28;;;;;;;5.63;4.38;;;;;;;;;;5055450;28;20107;-61
2023/09/03 07:33:54;;;;;;;6.13;4.57;;;;;;;;;;5054938;28;20442;-60
2023/09/03 07:36:19;;;;;;;4.85;4.35;;;;;;;;;;5054615;28;20021;-62
2023/09/03 07:38:45;;;;;;;4.70;4.18;;;;;;;;;;5055093;28;20021;-61
2023/09/03 07:41:11;;;;;;;4.18;3.40;;;;;;;;;;5055280;28;20037;-61
2023/09/03 07:43:37;;;;;;;6.90;3.72;;;;;;;;;;5054630;28;20024;-61
2023/09/03 07:46:05;;;;;;;4.40;3.88;;;;;;;;;;5055175;28;20053;-61
2023/09/03 07:48:31;;;;;;;4.68;3.85;;;;;;;;;;5055377;28;20033;-61
2023/09/03 07:50:56;;;;;;;3.60;3.10;;;;;;;;;;5055182;28;20454;-61
2023/09/03 07:53:22;;;;;;;4.60;3.10;;;;;;;;;;5054731;28;20409;-61
2023/09/03 07:55:48;;;;;;;4.00;3.42;;;;;;;;;;5054538;28;20451;-62
2023/09/03 07:58:14;;;;;;;4.13;3.28;;;;;;;;;;5054400;28;20081;-61
2023/09/03 08:00:40;;;;;;;4.78;3.38;;;;;;;;;;5054809;28;20424;-61
2023/09/03 08:03:06;;;;;;;4.15;3.20;;;;;;;;;;5054628;28;20056;-61
2023/09/03 08:05:32;;;;;;;4.13;3.22;;;;;;;;;;5055042;28;20032;-62
2023/09/03 08:07:58;;;;;;;4.20;3.42;;;;;;;;;;5053981;28;20443;-61
2023/09/03 08:10:26;;;;;;;4.70;3.00;;;;;;;;;;5054569;28;20063;-62
2023/09/03 08:12:52;;;;;;;5.53;3.25;;;;;;;;;;5054177;28;20029;-62
2023/09/03 08:15:18;;;;;;;4.13;3.33;;;;;;;;;;5054132;28;20081;-62
2023/09/03 08:17:44;;;;;;;4.72;3.08;;;;;;;;;;5053187;28;20116;-61
2023/09/03 08:20:12;;;;;;;5.60;3.85;;;;;;;;;;5054413;28;20125;-59
2023/09/03 08:22:37;;;;;;;4.43;3.67;;;;;;;;;;5053952;28;20036;-60
2023/09/03 08:25:04;;;;;;;5.75;3.60;;;;;;;;;;5053964;28;20021;-60
2023/09/03 08:27:30;;;;;;;3.22;2.47;;;;;;;;;;5054320;28;20036;-60
2023/09/03 08:29:56;;;;;;;4.18;2.80;;;;;;;;;;5054472;28;20103;-60
2023/09/03 08:32:23;;;;;;;4.00;2.90;;;;;;;;;;5054589;28;20091;-60
2023/09/03 08:34:50;;;;;;;5.18;2.80;;;;;;;;;;5053776;28;20067;-60
2023/09/03 08:37:16;;;;;;;3.40;2.78;;;;;;;;;;5053805;28;20135;-60
2023/09/03 08:39:42;;;;;;;3.50;2.53;;;;;;;;;;5053704;28;20112;-60
2023/09/03 08:42:10;;;;;;;3.03;2.22;;;;;;;;;;5054182;28;20025;-60
2023/09/03 08:44:37;;;;;;;3.50;2.97;;;;;;;;;;5053169;28;20493;-60
2023/09/03 08:47:03;;;;;;;3.60;2.63;;;;;;;;;;5053461;28;20025;-60
2023/09/03 08:49:31;;;;;;;4.38;2.50;;;;;;;;;;5053877;28;20060;-60
2023/09/03 08:51:57;;;;;;;3.13;2.42;;;;;;;;;;5053545;28;20056;-59
2023/09/03 08:54:24;;;;;;;2.92;2.15;;;;;;;;;;5053685;28;20032;-60
2023/09/03 08:56:50;;;;;;;5.60;3.00;;;;;;;;;;5053399;28;20108;-59
2023/09/03 08:59:16;;;;;;;3.95;2.28;;;;;;;;;;5053291;28;20111;-59
2023/09/03 09:01:42;;;;;;;3.35;2.35;;;;;;;;;;5053345;28;20025;-60
2023/09/03 09:04:08;;;;;;;8.43;2.47;;;;;;;;;;5053432;28;20379;-60
2023/09/03 09:06:34;;;;;;;3.33;1.80;;;;;;;;;;5053311;28;20013;-58
2023/09/03 09:09:01;;;;;;;5.30;2.35;;;;;;;;;;5053841;28;20036;-59
2023/09/03 09:11:32;;;;;;;2.97;2.40;;;;;;;;;;5053606;28;20406;-60
2023/09/03 09:13:58;;;;;;;3.20;2.22;;;;;;;;;;5053516;28;20104;-60
2023/09/03 09:16:24;;;;;;;2.60;1.58;;;;;;;;;;5053621;28;20112;-60
2023/09/03 09:18:50;;;;;;;3.00;1.98;;;;;;;;;;5053171;28;20126;-62
2023/09/03 09:21:18;;;;;;;2.67;2.05;;;;;;;;;;5053975;28;20121;-60
2023/09/03 09:23:44;;;;;;;3.83;2.60;;;;;;;;;;5053143;28;20359;-60
2023/09/03 09:26:17;;;;;;;3.20;2.35;;;;;;;;;;5053164;28;20035;-60
2023/09/03 09:29:03;;;;;;;4.00;2.65;;;;;;;;;;5054304;28;20375;-60
2023/09/03 09:31:35;;;;;;;2.65;1.80;;;;;;;;;;5057689;28;20025;-59
2023/09/03 09:34:02;;;;;;;3.75;2.55;;;;;;;;;;5057040;28;20040;-59
2023/09/03 09:36:30;;;;;;;3.03;1.77;;;;;;;;;;5057150;28;20400;-60
2023/09/03 09:39:05;;;;;;;3.08;1.73;;;;;;;;;;5057490;28;20056;-60
2023/09/03 09:41:31;;;;;;;2.90;2.13;;;;;;;;;;5057534;28;20025;-59
2023/09/03 09:43:57;;;;;;;2.85;1.83;;;;;;;;;;5056780;28;20107;-61
2023/09/03 09:46:30;;;;;;;3.53;2.42;;;;;;;;;;5056928;28;20052;-59
2023/09/03 09:48:57;;;;;;;4.03;1.75;;;;;;;;;;5056858;28;20029;-60
2023/09/03 09:51:23;;;;;;;2.25;1.52;;;;;;;;;;5056498;28;20494;-60
2023/09/03 09:53:56;;;;;;;3.67;1.60;;;;;;;;;;5057286;28;20410;-59
2023/09/03 09:56:25;;;;;;;3.15;2.08;;;;;;;;;;5057240;28;20340;-60
2023/09/03 09:58:51;;;;;;;3.63;2.43;;;;;;;;;;5057022;28;20025;-60
2023/09/03 10:01:17;;;;;;;4.53;2.15;;;;;;;;;;5056551;28;20017;-60
2023/09/03 10:03:47;;;;;;;2.17;1.58;;;;;;;;;;5056504;28;20116;-60
2023/09/03 10:06:14;;;;;;;2.30;1.90;;;;;;;;;;5056577;28;20064;-60
2023/09/03 10:08:40;;;;;;;2.90;1.63;;;;;;;;;;5056437;28;20033;-62
2023/09/03 10:11:06;;;;;;;3.72;2.20;;;;;;;;;;5057016;28;20018;-61
2023/09/03 10:13:32;;;;;;;2.83;1.90;;;;;;;;;;5056471;28;20024;-60
2023/09/03 10:16:02;;;;;;;3.30;2.20;;;;;;;;;;5056378;28;20520;-60
2023/09/03 10:18:28;;;;;;;2.58;1.58;;;;;;;;;;5056217;28;20029;-60
2023/09/03 10:20:56;;;;;;;1.60;1.20;;;;;;;;;;5056013;28;20036;-60
2023/09/03 10:23:22;;;;;;;2.88;2.10;;;;;;;;;;5056219;28;20024;-60
2023/09/03 10:25:48;;;;;;;2.67;1.90;;;;;;;;;;5056458;28;20032;-60
2023/09/03 10:28:16;;;;;;;2.35;1.35;;;;;;;;;;5055775;28;20128;-60
2023/09/03 10:30:42;;;;;;;1.80;1.23;;;;;;;;;;5056428;28;20024;-60
2023/09/03 10:33:09;;;;;;;2.30;0.90;;;;;;;;;;5055992;28;20031;-61
2023/09/03 10:35:35;;;;;;;1.92;0.90;;;;;;;;;;5054801;28;20536;-61
2023/09/03 10:38:06;;;;;;;1.67;1.00;;;;;;;;;;5056182;28;20052;-61
2023/09/03 10:40:33;;;;;;;1.73;0.75;;;;;;;;;;5055475;28;20025;-61
2023/09/03 10:43:24;;;;;;;1.85;0.82;;;;;;;;;;5055708;28;20095;-61
2023/09/03 10:46:03;;;;;;;1.88;1.10;;;;;;;;;;5053153;28;20032;-61
2023/09/03 10:48:29;;;;;;;1.60;0.70;;;;;;;;;;5056188;28;20101;-61
2023/09/03 10:50:55;;;;;;;2.25;1.00;;;;;;;;;;5056332;28;20032;-59
2023/09/03 10:53:34;;;;;;;3.08;1.52;;;;;;;;;;5055705;28;20375;-60
2023/09/03 10:56:12;;;;;;;1.33;0.90;;;;;;;;;;5056144;28;20308;-60
2023/09/03 10:58:58;;;;;;;3.03;0.85;;;;;;;;;;5056114;28;20029;-60
2023/09/03 11:01:31;;;;;;;2.63;0.93;;;;;;;;;;5055492;28;20036;-60
2023/09/03 11:03:58;;;;;;;1.90;0.90;;;;;;;;;;5055425;28;20447;-60
2023/09/03 11:06:25;;;;;;;2.40;1.42;;;;;;;;;;5055904;28;20021;-60
2023/09/03 11:09:00;;;;;;;1.80;1.13;;;;;;;;;;5055285;28;20087;-60
2023/09/03 11:11:28;;;;;;;1.88;1.23;;;;;;;;;;5055051;28;20031;-60
2023/09/03 11:13:55;;;;;;;2.75;1.50;;;;;;;;;;5055781;28;20033;-60
2023/09/03 11:16:27;;;;;;;3.17;1.25;;;;;;;;;;5055273;28;20024;-60
2023/09/03 11:18:53;;;;;;;6.07;1.27;;;;;;;;;;5054872;28;20127;-60
2023/09/03 11:21:19;;;;;;;1.85;1.17;;;;;;;;;;5055155;28;20112;-60
2023/09/03 11:23:58;;;;;;;3.50;1.00;;;;;;;;;;5055762;28;20071;-61
2023/09/03 11:26:24;;;;;;;2.10;1.02;;;;;;;;;;5055887;28;20120;-61
2023/09/03 11:28:50;;;;;;;2.65;1.30;;;;;;;;;;5055269;28;20115;-61
2023/09/03 11:31:16;;;;;;;5.45;1.13;;;;;;;;;;5055037;28;20049;-59
2023/09/03 11:33:42;;;;;;;1.90;1.05;;;;;;;;;;5054971;28;20025;-59
2023/09/03 11:36:08;;;;;;;1.85;1.02;;;;;;;;;;5054881;28;20021;-61
2023/09/03 11:38:34;;;;;;;2.08;1.27;;;;;;;;;;5055253;28;20557;-59
2023/09/03 11:41:01;;;;;;;2.65;1.02;;;;;;;;;;5055894;28;20094;-59
2023/09/03 11:43:28;;;;;;;2.10;1.35;;;;;;;;;;5054707;28;20040;-61
2023/09/03 11:45:55;;;;;;;1.90;1.00;;;;;;;;;;5055205;28;20029;-61
2023/09/03 11:48:27;;;;;;;2.20;1.10;;;;;;;;;;5054580;28;20025;-59
2023/09/03 11:50:53;;;;;;;2.97;1.23;;;;;;;;;;5054706;28;20017;-59
2023/09/03 11:53:20;;;;;;;1.73;0.93;;;;;;;;;;5054385;28;20393;-59
2023/09/03 11:55:49;;;;;;;1.67;1.05;;;;;;;;;;5054492;28;20029;-59
2023/09/03 11:58:17;;;;;;;2.20;1.15;;;;;;;;;;5054888;28;20025;-59
2023/09/03 12:00:43;;;;;;;2.72;1.10;;;;;;;;;;5054794;28;20025;-59
2023/09/03 12:03:09;;;;;;;2.20;1.00;;;;;;;;;;5054278;28;20021;-59
2023/09/03 12:05:35;;;;;;;1.80;1.05;;;;;;;;;;5054967;28;20355;-59
2023/09/03 12:08:04;;;;;;;2.22;1.23;;;;;;;;;;5054469;28;20033;-59
2023/09/03 12:10:31;;;;;;;1.80;1.00;;;;;;;;;;5054548;28;20017;-59
2023/09/03 12:12:59;;;;;;;1.33;0.70;;;;;;;;;;5054218;28;20248;-59
2023/09/03 12:15:26;;;;;;;2.05;1.10;;;;;;;;;;5054140;28;20463;-59
2023/09/03 12:17:52;;;;;;;1.88;0.90;;;;;;;;;;5054119;28;20060;-59
2023/09/03 12:20:36;;;;;;;1.88;0.98;;;;;;;;;;5054600;28;20451;-59
2023/09/03 12:23:19;;;;;;;1.63;0.77;;;;;;;;;;5054065;28;20025;-59
2023/09/03 12:25:46;;;;;;;2.88;0.80;;;;;;;;;;5053872;28;20025;-60
2023/09/03 12:28:12;;;;;;;1.95;0.88;;;;;;;;;;5052955;28;20025;-59
2023/09/03 12:30:57;;;;;;;1.73;1.00;;;;;;;;;;5054322;28;20024;-59
2023/09/03 12:33:24;;;;;;;2.05;0.90;;;;;;;;;;5054431;28;20108;-59
2023/09/03 12:36:09;;;;;;;2.33;0.93;;;;;;;;;;5053805;28;20370;-59
2023/09/03 12:38:48;;;;;;;2.10;1.25;;;;;;;;;;5054065;28;20061;-59
2023/09/03 12:41:14;;;;;;;1.50;0.95;;;;;;;;;;5053793;28;20514;-59
2023/09/03 12:43:41;;;;;;;1.75;0.90;;;;;;;;;;5054123;28;20025;-59
2023/09/03 12:46:08;;;;;;;1.88;0.95;;;;;;;;;;5053556;28;20029;-59
2023/09/03 12:48:34;;;;;;;2.00;1.00;;;;;;;;;;5053549;28;20033;-59
2023/09/03 12:51:00;;;;;;;1.73;0.90;;;;;;;;;;5052668;28;20100;-59
2023/09/03 12:53:25;;;;;;;1.95;0.90;;;;;;;;;;5053568;28;20367;-61
2023/09/03 12:55:52;;;;;;;2.05;1.30;;;;;;;;;;5053259;28;20455;-62
2023/09/03 12:58:18;;;;;;;1.98;0.82;;;;;;;;;;5053560;28;20044;-62
2023/09/03 13:00:44;;;;;;;1.08;0.70;;;;;;;;;;5054042;28;20021;-62
2023/09/03 13:03:10;;;;;;;1.35;0.80;;;;;;;;;;5052908;28;20120;-62
2023/09/03 13:05:36;;;;;;;1.75;0.90;;;;;;;;;;5053352;28;20100;-61
2023/09/03 13:08:02;;;;;;;1.15;0.60;;;;;;;;;;5053372;28;20589;-62
2023/09/03 13:10:27;;;;;;;1.33;0.70;;;;;;;;;;5054215;28;20021;-62
2023/09/03 13:12:53;;;;;;;1.30;0.60;;;;;;;;;;5053463;28;20485;-59
2023/09/03 13:15:19;;;;;;;1.52;0.52;;;;;;;;;;5054155;28;20028;-60
2023/09/03 13:17:46;;;;;;;3.08;0.90;;;;;;;;;;5053629;28;20029;-60
2023/09/03 13:20:13;;;;;;;1.40;0.75;;;;;;;;;;5054005;28;20028;-61
2023/09/03 13:22:38;;;;;;;1.10;0.52;;;;;;;;;;5053332;28;20032;-61
2023/09/03 13:25:04;;;;;;;1.38;0.70;;;;;;;;;;5053801;28;20029;-60
2023/09/03 13:27:30;;;;;;;1.30;0.60;;;;;;;;;;5053261;28;20083;-61
2023/09/03 13:29:57;;;;;;;1.77;0.80;;;;;;;;;;5053834;28;20021;-60
2023/09/03 13:32:23;;;;;;;1.63;0.95;;;;;;;;;;5053983;28;20025;-60
2023/09/03 13:34:49;;;;;;;1.60;0.88;;;;;;;;;;5052939;28;20029;-61
2023/09/03 13:37:15;;;;;;;1.75;0.80;;;;;;;;;;5053365;28;20390;-61
2023/09/03 13:39:41;;;;;;;1.45;0.60;;;;;;;;;;5053410;28;20404;-61
2023/09/03 13:42:07;;;;;;;2.42;0.90;;;;;;;;;;5052365;28;20063;-60
2023/09/03 13:44:33;;;;;;;1.70;0.75;;;;;;;;;;5053014;28;20447;-61
2023/09/03 13:46:59;;;;;;;2.40;0.93;;;;;;;;;;5053574;28;20429;-61
2023/09/03 13:49:26;;;;;;;2.25;0.80;;;;;;;;;;5052954;28;20120;-61
2023/09/03 13:51:52;;;;;;;2.63;1.00;;;;;;;;;;5053009;28;20021;-60
2023/09/03 13:54:18;;;;;;;1.20;0.60;;;;;;;;;;5052654;28;20108;-61
2023/09/03 13:56:44;;;;;;;1.40;0.60;;;;;;;;;;5053524;28;20120;-61
2023/09/03 13:59:10;;;;;;;1.38;0.75;;;;;;;;;;5053294;28;20031;-61
2023/09/03 14:01:38;;;;;;;1.40;0.75;;;;;;;;;;5052937;28;20044;-61
2023/09/03 14:04:04;;;;;;;2.00;0.95;;;;;;;;;;5052981;28;20071;-61
2023/09/03 14:06:30;;;;;;;1.83;1.23;;;;;;;;;;5052873;28;20021;-61
2023/09/03 14:08:56;;;;;;;1.48;0.70;;;;;;;;;;5053135;28;20060;-61
2023/09/03 14:11:23;;;;;;;1.83;0.90;;;;;;;;;;5053345;28;20025;-61
2023/09/03 14:13:49;;;;;;;2.20;0.73;;;;;;;;;;5053380;28;20021;-61
2023/09/03 14:16:15;;;;;;;2.00;1.23;;;;;;;;;;5055283;28;20406;-61
2023/09/03 14:18:41;;;;;;;1.50;0.80;;;;;;;;;;5056121;28;20471;-61
2023/09/03 14:21:07;;;;;;;1.65;1.02;;;;;;;;;;5056047;28;20071;-61
2023/09/03 14:23:33;;;;;;;1.70;0.98;;;;;;;;;;5057050;28;20017;-61
2023/09/03 14:25:59;;;;;;;5.43;1.48;;;;;;;;;;5056795;28;20036;-61
2023/09/03 14:28:25;;;;;;;2.25;0.80;;;;;;;;;;5056430;28;20474;-61
2023/09/03 14:30:51;;;;;;;1.70;0.90;;;;;;;;;;5056201;28;20047;-61
2023/09/03 14:33:17;;;;;;;2.42;0.88;;;;;;;;;;5056106;28;20036;-60
2023/09/03 14:35:43;;;;;;;1.38;0.68;;;;;;;;;;5056097;28;20029;-61
2023/09/03 14:38:10;;;;;;;3.72;1.13;;;;;;;;;;5055792;28;20502;-63
2023/09/03 14:40:36;;;;;;;1.70;0.88;;;;;;;;;;5056244;28;20470;-61
2023/09/03 14:43:02;;;;;;;2.10;0.90;;;;;;;;;;5055837;28;20063;-61